^^
Dati Storici Stazione
 
Giornaliero Riassunto Aprile 17, 2021 Unita' di misura:  Metriche    Inglesi   Entrambe
Giornaliero Settimanale Mensile Annuale
  Attuale: Max: Min: Media:
Temperatura: 9.1 °C 9.1 °C 6.6 °C 7.3 °C
Punto di Rugiada: 3.4 °C 4.9 °C 2.8 °C 4 °C
Umidita': 67.8% 89% 67.7% 80%
Velocita' Vento: 1.1km/h 5.5km/h 0km/h 1.8km/h
Raffica di Vento: 8km/h 11.3km/h - -
Direzione VentoNW - - WSW
Pressione: 1009.4 hPa 1013.1 hPa 1009.4 hPa -
Precipitazioni: 0 mm      
 
 
Tabelle Dati per il Aprile 17, 2021
Ora Temperatura Punto Rugiada Pressione Dir.Vento Vel.Vento Raff.Vento Umidita' Rainfall Rate (Orario) Solare Condizioni
00:04 6.6 °C 4.9 °C 1013.1 hPa NW 0.8 km/h 3.7 km/h 89% 0.25 mm W/m2
00:09 6.6 °C 4.9 °C 1013.1 hPa NNW 0.5 km/h 3.7 km/h 89% 0.25 mm W/m2
00:14 6.6 °C 4.9 °C 1013.1 hPa NNW 1 km/h 3.7 km/h 89% 0 mm W/m2
00:19 6.6 °C 4.9 °C 1013.1 hPa NW 1.3 km/h 5.6 km/h 89% 0 mm W/m2
00:24 6.6 °C 4.9 °C 1013.1 hPa NNW 0.2 km/h 3.7 km/h 89% 0 mm W/m2
00:29 6.6 °C 4.9 °C 1013.1 hPa NNE 0.2 km/h 3.7 km/h 89% 0 mm W/m2
00:34 6.6 °C 4.9 °C 1013.1 hPa North 0.3 km/h 3.2 km/h 89% 0 mm W/m2
00:39 6.6 °C 4.9 °C 1013.1 hPa Calm   1.9 km/h 89% 0 mm W/m2
00:44 6.6 °C 4.9 °C 1013.1 hPa WNW 0.8 km/h 3.7 km/h 89% 0 mm W/m2
00:49 6.6 °C 4.9 °C 1012.8 hPa NNW 0.5 km/h 4.8 km/h 89% 0 mm W/m2
00:54 6.6 °C 4.9 °C 1012.8 hPa NNE 0.8 km/h 5.6 km/h 89% 0 mm W/m2
00:59 6.6 °C 4.8 °C 1012.8 hPa NE 1.6 km/h 5.6 km/h 88.3% 0 mm W/m2
01:04 6.7 °C 4.8 °C 1012.8 hPa NNE 1.6 km/h 5.6 km/h 88% 0 mm W/m2
01:09 6.7 °C 4.8 °C 1012.8 hPa North 2.1 km/h 8 km/h 87.4% 0 mm W/m2
01:14 6.7 °C 4.7 °C 1012.8 hPa NNW 1.8 km/h 8 km/h 87% 0 mm W/m2
01:19 6.8 °C 4.8 °C 1012.8 hPa NNW 2.9 km/h 8 km/h 87% 0 mm W/m2
01:24 6.8 °C 4.8 °C 1012.4 hPa North 2.6 km/h 8 km/h 87% 0 mm W/m2
01:29 6.8 °C 4.8 °C 1012.4 hPa NNW 2.1 km/h 8 km/h 87% 0 mm W/m2
01:34 6.8 °C 4.8 °C 1012.4 hPa NNE 1.6 km/h 6.4 km/h 87.3% 0 mm W/m2
01:39 6.8 °C 4.8 °C 1012.4 hPa North 2.4 km/h 8 km/h 87.1% 0 mm W/m2
01:44 6.8 °C 4.8 °C 1012.4 hPa North 1.6 km/h 8 km/h 87% 0 mm W/m2
01:49 6.8 °C 4.8 °C 1012.4 hPa North 2.1 km/h 6.4 km/h 87% 0 mm W/m2
01:54 6.9 °C 4.8 °C 1012.1 hPa NNW 4 km/h 11.3 km/h 86.5% 0 mm W/m2
01:59 7 °C 4.8 °C 1012.1 hPa NNE 2.6 km/h 11.3 km/h 85.7% 0 mm W/m2
02:04 7.1 °C 4.7 °C 1012.1 hPa NNW 3.4 km/h 8 km/h 85% 0 mm W/m2
02:09 7.1 °C 4.7 °C 1012.1 hPa NNE 1.6 km/h 8 km/h 84.8% 0 mm W/m2
02:14 7.1 °C 4.7 °C 1012.1 hPa NNW 2.4 km/h 6.4 km/h 84.3% 0 mm W/m2
02:19 7.2 °C 4.7 °C 1012.1 hPa NE 2.4 km/h 6.4 km/h 84% 0 mm W/m2
02:24 7.2 °C 4.7 °C 1012.1 hPa NE 2.1 km/h 6.4 km/h 84% 0 mm W/m2
02:29 7.2 °C 4.7 °C 1011.7 hPa North 2.9 km/h 8 km/h 84% 0 mm W/m2
02:34 7.2 °C 4.7 °C 1011.7 hPa North 3.7 km/h 8 km/h 84% 0 mm W/m2
02:39 7.2 °C 4.7 °C 1011.7 hPa North 2.9 km/h 8 km/h 84% 0 mm W/m2
02:44 7.2 °C 4.7 °C 1011.7 hPa NNW 3.4 km/h 9.7 km/h 84% 0 mm W/m2
02:49 7.2 °C 4.7 °C 1011.4 hPa NNE 1.8 km/h 9.7 km/h 84% 0 mm W/m2
02:54 7.2 °C 4.7 °C 1011.4 hPa NNE 2.1 km/h 9.7 km/h 84% 0 mm W/m2
02:59 7.2 °C 4.6 °C 1011.4 hPa North 2.6 km/h 9.7 km/h 83.7% 0 mm W/m2
03:04 7.2 °C 4.4 °C 1011.1 hPa North 3.5 km/h 8 km/h 83% 0 mm W/m2
03:09 7.2 °C 4.4 °C 1011.1 hPa North 2.1 km/h 8 km/h 83% 0 mm W/m2
03:14 7.2 °C 4.4 °C 1011.1 hPa NNW 4.3 km/h 9.7 km/h 83% 0 mm W/m2
03:19 7.2 °C 4.4 °C 1011.1 hPa NNW 5.5 km/h 11.3 km/h 83% 0 mm W/m2
03:24 7.2 °C 4.4 °C 1011.1 hPa North 3.9 km/h 11.3 km/h 82.8% 0 mm W/m2
03:29 7.2 °C 4.4 °C 1011.1 hPa North 4.5 km/h 11.3 km/h 82.2% 0 mm W/m2
03:34 7.2 °C 4.3 °C 1011.1 hPa North 2.7 km/h 11.3 km/h 82% 0 mm W/m2
03:39 7.3 °C 4.3 °C 1011.1 hPa NW 3.1 km/h 9.7 km/h 81.7% 0 mm W/m2
03:44 7.3 °C 4.2 °C 1010.7 hPa North 4.2 km/h 8 km/h 81% 0 mm W/m2
03:49 7.3 °C 4.2 °C 1010.7 hPa NNW 4.7 km/h 9.7 km/h 80.6% 0 mm W/m2
03:54 7.3 °C 4.1 °C 1011.1 hPa NW 2.4 km/h 9.7 km/h 80% 0 mm W/m2
03:59 7.3 °C 4.1 °C 1011.1 hPa NW 1.9 km/h 8 km/h 80% 0 mm W/m2
04:04 7.3 °C 4 °C 1010.7 hPa NNW 2.6 km/h 6.4 km/h 79.3% 0 mm W/m2
04:09 7.3 °C 3.9 °C 1010.7 hPa NNW 2.4 km/h 8 km/h 79% 0 mm W/m2
04:14 7.4 °C 3.8 °C 1010.7 hPa NNW 2.6 km/h 8 km/h 78.2% 0 mm W/m2
04:19 7.4 °C 3.8 °C 1010.7 hPa NW 1.8 km/h 6.4 km/h 78% 0 mm W/m2
04:24 7.4 °C 3.8 °C 1010.7 hPa NW 2.7 km/h 8 km/h 78% 0 mm W/m2
04:29 7.4 °C 3.8 °C 1010.7 hPa North 2.1 km/h 8 km/h 78% 0 mm W/m2
04:34 7.4 °C 3.8 °C 1010.4 hPa NNE 2.1 km/h 6.4 km/h 78% 0 mm W/m2
04:39 7.4 °C 3.7 °C 1010.4 hPa NW 1.9 km/h 6.4 km/h 77.1% 0 mm W/m2
04:44 7.4 °C 3.7 °C 1010.4 hPa NNW 2.7 km/h 6.4 km/h 77% 0 mm W/m2
04:49 7.4 °C 3.6 °C 1010.4 hPa NW 2.6 km/h 6.4 km/h 77% 0 mm W/m2
04:54 7.4 °C 3.8 °C 1010.4 hPa WNW 0.3 km/h 6.4 km/h 77.9% 0 mm W/m2
04:59 7.3 °C 3.8 °C 1010.4 hPa West 1 km/h 3.7 km/h 78.7% 0 mm W/m2
05:04 7.2 °C 4 °C 1010.4 hPa NNW 0.5 km/h 3.7 km/h 80% 0 mm W/m2
05:09 7.1 °C 3.9 °C 1010.4 hPa NNW 2.6 km/h 6.4 km/h 80% 0 mm W/m2
05:14 7.1 °C 3.9 °C 1010.4 hPa NW 1.1 km/h 6.4 km/h 79.8% 0 mm W/m2
05:19 7.1 °C 3.9 °C 1010.4 hPa WNW 1.3 km/h 6.4 km/h 80% 0 mm W/m2
05:24 7.1 °C 3.8 °C 1010.4 hPa West 0.2 km/h 6.4 km/h 80% 0 mm W/m2
05:29 7.1 °C 3.8 °C 1010.4 hPa North 1.8 km/h 6.4 km/h 79.7% 0 mm W/m2
05:34 7.1 °C 3.7 °C 1010 hPa North 2.4 km/h 8 km/h 79% 0 mm W/m2
05:39 7.1 °C 3.7 °C 1010 hPa NNW 2.6 km/h 8 km/h 79% 0 mm W/m2
05:44 7.1 °C 3.7 °C 1010 hPa NW 2.6 km/h 11.3 km/h 79% 0 mm W/m2
05:49 7.1 °C 3.5 °C 1010 hPa NW 2.9 km/h 11.3 km/h 78% 0 mm W/m2
05:54 7.1 °C 3.6 °C 1009.7 hPa NNW 1 km/h 6.4 km/h 78.6% 0 mm W/m2
05:59 7.1 °C 3.7 °C 1009.7 hPa WSW 0.5 km/h 5.6 km/h 79% 0 mm W/m2
06:04 7 °C 3.6 °C 1009.7 hPa West 0.2 km/h 4.8 km/h 79% 0 mm W/m2
06:09 6.9 °C 3.6 °C 1009.7 hPa SSE 0.5 km/h 5.6 km/h 79% 0 mm W/m2
06:14 6.9 °C 3.6 °C 1009.7 hPa WNW 0.3 km/h 3.7 km/h 79% 0 mm W/m2
06:19 6.9 °C 3.3 °C 1009.7 hPa NNW 2.1 km/h 8 km/h 77.9% 0 mm W/m2
06:24 6.9 °C 3.1 °C 1009.4 hPa North 1.6 km/h 8 km/h 76.8% 0 mm W/m2
06:29 7.1 °C 3.1 °C 1009.4 hPa NNW 1.3 km/h 6.4 km/h 76% 0 mm W/m2
06:34 7.1 °C 3 °C 1009.4 hPa WSW 0.6 km/h 6.4 km/h 75.3% 0 mm W/m2
06:39 7.1 °C 2.9 °C 1009.4 hPa NW 0.6 km/h 8 km/h 75% 0 mm W/m2
06:44 7.1 °C 2.9 °C 1009.4 hPa NNE 1.4 km/h 7.4 km/h 74.7% 0 mm W/m2
06:49 7.1 °C 2.8 °C 1009.4 hPa NW 1 km/h 5.6 km/h 74% 0 mm W/m2
06:54 7.2 °C 2.8 °C 1009.4 hPa WNW 1.4 km/h 4.8 km/h 74% 0 mm W/m2
06:59 7.2 °C 2.9 °C 1009.4 hPa NW 0.5 km/h 4.8 km/h 74% 0 mm W/m2
07:04 7.2 °C 2.9 °C 1009.4 hPa NNW 1.4 km/h 5.6 km/h 73.8% 0 mm W/m2
07:09 7.3 °C 2.8 °C 1009.4 hPa NW 1.3 km/h 6.4 km/h 73% 0 mm W/m2
07:14 7.3 °C 2.8 °C 1009.4 hPa NW 0.8 km/h 6.4 km/h 73% 0 mm W/m2
07:19 7.4 °C 2.9 °C 1009.4 hPa WNW 0.2 km/h 4.8 km/h 73% 0 mm W/m2
07:24 7.6 °C 3 °C 1009.4 hPa WSW 1.1 km/h 3.7 km/h 73% 0 mm W/m2
07:29 7.6 °C 2.9 °C 1009.4 hPa WSW 2.1 km/h 6.4 km/h 72.4% 0 mm W/m2
07:34 7.6 °C 2.9 °C 1009.4 hPa West 1.9 km/h 5.6 km/h 72.3% 0 mm W/m2
07:39 7.7 °C 3 °C 1009.7 hPa West 2.4 km/h 6.4 km/h 72.1% 0 mm W/m2
07:44 7.8 °C 3.2 °C 1009.4 hPa WSW 0.6 km/h 6.4 km/h 72.5% 0 mm W/m2
07:49 7.9 °C 3.2 °C 1009.4 hPa West 0.5 km/h 4.8 km/h 71.8% 0 mm W/m2
07:54 8.1 °C 3.2 °C 1009.4 hPa West 0.3 km/h 3.2 km/h 71.3% 0 mm W/m2
07:59 8.2 °C 3.2 °C 1009.4 hPa WNW 0.5 km/h 3.7 km/h 71% 0 mm W/m2
08:04 8.3 °C 3.3 °C 1009.4 hPa West 1.3 km/h 5.6 km/h 70.8% 0 mm W/m2
08:09 8.4 °C 3.2 °C 1009.4 hPa West 0.6 km/h 5.6 km/h 70% 0 mm W/m2
08:14 8.5 °C 3.3 °C 1009.4 hPa West 1.4 km/h 6.4 km/h 69.7% 0 mm W/m2
08:19 8.6 °C 3.2 °C 1009.4 hPa WNW 1.4 km/h 5.6 km/h 69% 0 mm W/m2
08:24 8.7 °C 3.3 °C 1009.4 hPa WNW 1.6 km/h 5.6 km/h 68.9% 0 mm W/m2
08:29 8.8 °C 3.4 °C 1009.4 hPa West 1.1 km/h 5.6 km/h 68.6% 0 mm W/m2
08:34 8.9 °C 3.3 °C 1009.4 hPa North 0.8 km/h 5.6 km/h 68% 0 mm W/m2
08:39 9 °C 3.3 °C 1009.4 hPa NNW 2.3 km/h 8 km/h 67.7% 0 mm W/m2
08:44 9.1 °C 3.4 °C 1009.4 hPa NW 1.1 km/h 8 km/h 67.8% 0 mm W/m2
Acquaviva delle Fonti, BA, Italia
Complimenti a Weather Underground - 2.25 mb